Terminal Aerodrome Forecast
Issued by NWS Indianapolis, IN

Home | Current Version | Previous Version | Text Only | Print | Product List | Glossary On
Versions: 1 2 3 4 5 6 7 8 9 10 11 12 13 14 15 16 17 18 19 20 21 22 23 24 25 26
406
FTUS43 KIND 272320
TAFIND
TAF
KIND 272320Z 2800/0106 15005KT P6SM BKN040
     FM280800 15006KT P6SM VCSH BKN050
     FM281000 16006KT P6SM -SHRA BKN030
     FM281300 17007KT P6SM VCSH OVC008
     FM281600 18009KT P6SM VCSH OVC010
     FM281800 19010G22KT P6SM OVC010
     FM282200 19011G22KT P6SM OVC008
     FM010000 19012G23KT P6SM SHRA VCTS OVC008CB=

USA.gov is the U.S. government's official web portal to all federal, state and local government web resources and services.